createdAt,value
2019-01-29T00:01:39.867Z,-0.37
2019-01-29T00:04:08.613Z,-0.38
2019-01-29T00:06:37.394Z,-0.38
2019-01-29T00:09:09.077Z,-0.36
2019-01-29T00:11:37.839Z,-0.36
2019-01-29T00:14:06.308Z,-0.35
2019-01-29T00:16:34.761Z,-0.33
2019-01-29T00:19:03.188Z,-0.36
2019-01-29T00:21:31.939Z,-0.34
2019-01-29T00:24:00.366Z,-0.33
2019-01-29T00:26:28.818Z,-0.33
2019-01-29T00:28:57.247Z,-0.33
2019-01-29T00:31:25.960Z,-0.30
2019-01-29T00:33:54.682Z,-0.33
2019-01-29T00:36:23.472Z,-0.30
2019-01-29T00:38:52.255Z,-0.31
2019-01-29T00:41:21.061Z,-0.32
2019-01-29T00:43:49.523Z,-0.33
2019-01-29T00:46:18.315Z,-0.34
2019-01-29T00:48:46.778Z,-0.33
2019-01-29T00:51:16.714Z,-0.33
2019-01-29T00:53:45.498Z,-0.32
2019-01-29T00:56:14.286Z,-0.31
2019-01-29T00:58:42.730Z,-0.31
2019-01-29T01:01:11.154Z,-0.31
2019-01-29T01:03:39.600Z,-0.29
2019-01-29T01:06:08.309Z,-0.29
2019-01-29T01:08:38.445Z,-0.30
2019-01-29T01:11:06.996Z,-0.30
2019-01-29T01:13:35.694Z,-0.29
2019-01-29T01:16:04.127Z,-0.30
2019-01-29T01:18:33.486Z,-0.28
2019-01-29T01:21:01.923Z,-0.27
2019-01-29T01:23:30.616Z,-0.25
2019-01-29T01:25:59.327Z,-0.24
2019-01-29T01:28:27.766Z,-0.22
2019-01-29T01:30:56.197Z,-0.23
2019-01-29T01:33:24.639Z,-0.20
2019-01-29T01:35:53.088Z,-0.20
2019-01-29T01:38:21.534Z,-0.21
2019-01-29T01:40:50.206Z,-0.18
2019-01-29T01:43:19.000Z,-0.18
2019-01-29T01:45:47.432Z,-0.13
2019-01-29T01:48:15.956Z,-0.15
2019-01-29T01:50:44.385Z,-0.13
2019-01-29T01:53:13.127Z,-0.13
2019-01-29T01:55:41.871Z,-0.13
2019-01-29T01:58:10.320Z,-0.11
2019-01-29T02:00:39.087Z,-0.12
2019-01-29T02:03:07.539Z,-0.13
2019-01-29T02:05:35.970Z,-0.14
2019-01-29T02:08:04.423Z,-0.10
2019-01-29T02:10:32.873Z,-0.11
2019-01-29T02:13:01.304Z,-0.10
2019-01-29T02:15:29.747Z,-0.09
2019-01-29T02:17:58.186Z,-0.10
2019-01-29T02:20:26.631Z,-0.05
2019-01-29T02:22:55.148Z,-0.06
2019-01-29T02:25:24.198Z,-0.10
2019-01-29T02:27:52.624Z,-0.10
2019-01-29T02:30:22.944Z,-0.12
2019-01-29T02:32:51.697Z,-0.12
2019-01-29T02:35:20.821Z,-0.14
2019-01-29T02:37:49.640Z,-0.17
2019-01-29T02:40:20.507Z,-0.17
2019-01-29T02:42:48.941Z,-0.13
2019-01-29T02:45:19.116Z,-0.15
2019-01-29T02:47:47.599Z,-0.17
2019-01-29T02:50:16.115Z,-0.18
2019-01-29T02:52:45.224Z,-0.20
2019-01-29T02:55:14.070Z,-0.18
2019-01-29T02:57:42.809Z,-0.19
2019-01-29T03:00:14.640Z,-0.20
2019-01-29T03:02:43.067Z,-0.20
2019-01-29T03:05:12.192Z,-0.23
2019-01-29T03:07:42.795Z,-0.20
2019-01-29T03:10:12.900Z,-0.22
2019-01-29T03:12:41.410Z,-0.23
2019-01-29T03:15:12.808Z,-0.22
2019-01-29T03:17:41.226Z,-0.26
2019-01-29T03:20:10.235Z,-0.26
2019-01-29T03:22:38.664Z,-0.25
2019-01-29T03:25:08.604Z,-0.25
2019-01-29T03:27:37.524Z,-0.23
2019-01-29T03:30:07.297Z,-0.22
2019-01-29T03:32:36.218Z,-0.22
2019-01-29T03:35:05.793Z,-0.24
2019-01-29T03:37:34.264Z,-0.25
2019-01-29T03:40:02.998Z,-0.23
2019-01-29T03:42:31.463Z,-0.21
2019-01-29T03:44:59.900Z,-0.23
2019-01-29T03:47:28.334Z,-0.22
2019-01-29T03:49:56.780Z,-0.20
2019-01-29T03:52:25.510Z,-0.19
2019-01-29T03:54:53.960Z,-0.17
2019-01-29T03:57:22.399Z,-0.16
2019-01-29T03:59:50.831Z,-0.15
2019-01-29T04:02:19.633Z,-0.13
2019-01-29T04:04:48.331Z,-0.13
2019-01-29T04:07:16.787Z,-0.12
2019-01-29T04:09:45.291Z,-0.12
2019-01-29T04:12:13.727Z,-0.12
2019-01-29T04:14:42.451Z,-0.12
2019-01-29T04:17:10.896Z,-0.14
2019-01-29T04:19:39.320Z,-0.13
2019-01-29T04:22:07.811Z,-0.14
2019-01-29T04:24:36.604Z,-0.14
2019-01-29T04:27:05.336Z,-0.16
2019-01-29T04:29:34.040Z,-0.13
2019-01-29T04:32:02.486Z,-0.14
2019-01-29T04:34:31.579Z,-0.16
2019-01-29T04:37:00.306Z,-0.13
2019-01-29T04:39:29.090Z,-0.13
2019-01-29T04:41:57.875Z,-0.08
2019-01-29T04:44:26.321Z,-0.07
2019-01-29T04:46:55.011Z,-0.09
2019-01-29T04:49:23.739Z,-0.10
2019-01-29T04:51:52.182Z,-0.09
2019-01-29T04:54:20.642Z,-0.11
2019-01-29T04:56:49.055Z,-0.13
2019-01-29T04:59:17.554Z,-0.11
2019-01-29T05:01:46.010Z,-0.11
2019-01-29T05:04:14.449Z,-0.11
2019-01-29T05:06:42.885Z,-0.13
2019-01-29T05:09:11.685Z,-0.12
2019-01-29T05:11:40.979Z,-0.13
2019-01-29T05:14:09.418Z,-0.13
2019-01-29T05:16:37.859Z,-0.12
2019-01-29T05:19:06.306Z,-0.11
2019-01-29T05:21:34.754Z,-0.10
2019-01-29T05:24:06.764Z,-0.11
2019-01-29T05:26:33.978Z,-0.10
2019-01-29T05:29:02.442Z,-0.11
2019-01-29T05:31:31.404Z,-0.10
2019-01-29T05:33:59.834Z,-0.10
2019-01-29T05:36:28.264Z,-0.09
2019-01-29T05:38:56.715Z,-0.12
2019-01-29T05:41:25.166Z,-0.13
2019-01-29T05:43:53.865Z,-0.12
2019-01-29T05:46:22.291Z,-0.16
2019-01-29T05:48:51.036Z,-0.17
2019-01-29T05:51:19.811Z,-0.14
2019-01-29T05:53:48.503Z,-0.14
2019-01-29T05:56:16.931Z,-0.14
2019-01-29T05:58:45.706Z,-0.14
2019-01-29T06:01:14.468Z,-0.14
2019-01-29T06:03:42.903Z,-0.15
2019-01-29T06:06:11.650Z,-0.15
2019-01-29T06:08:40.448Z,-0.16
2019-01-29T06:11:11.929Z,-0.16
2019-01-29T06:13:40.987Z,-0.16
2019-01-29T06:16:09.739Z,-0.16
2019-01-29T06:18:38.186Z,-0.15
2019-01-29T06:21:07.352Z,-0.16
2019-01-29T06:23:35.808Z,-0.13
2019-01-29T06:26:04.644Z,-0.13
2019-01-29T06:28:33.086Z,-0.14
2019-01-29T06:31:02.079Z,-0.17
2019-01-29T06:33:30.519Z,-0.18
2019-01-29T06:36:02.048Z,-0.19
2019-01-29T06:38:30.477Z,-0.20
2019-01-29T06:40:58.915Z,-0.19
2019-01-29T06:43:27.470Z,-0.16
2019-01-29T06:45:56.159Z,-0.16
2019-01-29T06:48:24.650Z,-0.17
2019-01-29T06:50:53.171Z,-0.17
2019-01-29T06:53:21.578Z,-0.18
2019-01-29T06:55:50.280Z,-0.20
2019-01-29T06:58:18.715Z,-0.19
2019-01-29T07:00:47.158Z,-0.23
2019-01-29T07:03:15.623Z,-0.21
2019-01-29T07:05:44.369Z,-0.20
2019-01-29T07:08:12.808Z,-0.25
2019-01-29T07:10:41.574Z,-0.26
2019-01-29T07:13:10.362Z,-0.26
2019-01-29T07:15:56.482Z,-0.28
2019-01-29T07:18:33.620Z,-0.29
2019-01-29T07:21:03.730Z,-0.26
2019-01-29T07:23:32.170Z,-0.26
2019-01-29T07:26:00.602Z,-0.23
2019-01-29T07:28:29.388Z,-0.20
2019-01-29T07:30:57.827Z,-0.22
2019-01-29T07:33:26.578Z,-0.21
2019-01-29T07:35:55.667Z,-0.18
2019-01-29T07:38:24.095Z,-0.18
2019-01-29T07:40:52.843Z,-0.15
2019-01-29T07:43:21.275Z,-0.14
2019-01-29T07:45:49.970Z,-0.15
2019-01-29T07:48:18.398Z,-0.17
2019-01-29T07:50:47.470Z,-0.13
2019-01-29T07:53:15.925Z,-0.11
2019-01-29T07:55:44.349Z,-0.13
2019-01-29T07:58:12.776Z,-0.10
2019-01-29T08:00:42.291Z,-0.12
2019-01-29T08:03:11.411Z,-0.14
2019-01-29T08:05:40.144Z,-0.04
2019-01-29T08:08:08.886Z,-0.02
2019-01-29T08:10:37.885Z,0.03
2019-01-29T08:13:06.708Z,0.05
2019-01-29T08:15:35.107Z,0.04
2019-01-29T08:18:03.833Z,0.03
2019-01-29T08:20:32.300Z,0.05
2019-01-29T08:23:00.738Z,0.09
2019-01-29T08:25:29.194Z,0.08
2019-01-29T08:27:58.008Z,0.09
2019-01-29T08:30:26.446Z,0.05
2019-01-29T08:32:54.876Z,0.06
2019-01-29T08:35:23.614Z,0.09
2019-01-29T08:37:52.037Z,0.09
2019-01-29T08:40:20.775Z,0.11
2019-01-29T08:42:49.769Z,0.25
2019-01-29T08:45:18.233Z,0.36
2019-01-29T08:47:46.953Z,0.34
2019-01-29T08:50:18.394Z,0.33
2019-01-29T08:52:47.180Z,0.30
2019-01-29T08:55:15.874Z,0.27
2019-01-29T08:57:44.648Z,0.26
2019-01-29T09:00:14.385Z,0.32
2019-01-29T09:02:42.837Z,0.37
2019-01-29T09:05:11.570Z,0.34
2019-01-29T09:07:40.619Z,0.42
2019-01-29T09:10:10.784Z,0.55
2019-01-29T09:12:39.276Z,0.71
2019-01-29T09:15:09.999Z,0.62
2019-01-29T09:17:38.436Z,0.49
2019-01-29T09:20:07.077Z,0.46
2019-01-29T09:22:35.802Z,0.39
2019-01-29T09:25:04.589Z,0.24
2019-01-29T09:27:33.355Z,0.25
2019-01-29T09:30:01.789Z,0.28
2019-01-29T09:32:30.232Z,0.29
2019-01-29T09:34:58.925Z,0.28
2019-01-29T09:37:27.674Z,0.22
2019-01-29T09:39:56.131Z,0.35
2019-01-29T09:42:25.195Z,0.31
2019-01-29T09:44:53.687Z,0.31
2019-01-29T09:47:22.136Z,0.54
2019-01-29T09:49:50.842Z,0.67
2019-01-29T09:52:19.633Z,0.94
2019-01-29T09:54:48.076Z,1.14
2019-01-29T09:57:16.539Z,1.07
2019-01-29T09:59:45.030Z,1.01
2019-01-29T10:02:13.477Z,1.02
2019-01-29T10:04:42.225Z,1.04
2019-01-29T10:07:10.713Z,0.95
2019-01-29T10:09:39.111Z,0.85
2019-01-29T10:12:07.547Z,0.82
2019-01-29T10:14:35.972Z,0.96
2019-01-29T10:17:04.417Z,1.11
2019-01-29T10:19:33.109Z,1.57
2019-01-29T10:22:01.905Z,1.71
2019-01-29T10:24:30.331Z,1.65
2019-01-29T10:26:58.765Z,1.36
2019-01-29T10:29:27.196Z,1.17
2019-01-29T10:31:55.639Z,1.10
2019-01-29T10:34:24.366Z,1.05
2019-01-29T10:36:52.809Z,1.23
2019-01-29T10:39:21.582Z,1.32
2019-01-29T10:41:50.025Z,1.15
2019-01-29T10:44:18.452Z,1.15
2019-01-29T10:46:47.139Z,1.12
2019-01-29T10:49:15.585Z,1.12
2019-01-29T10:51:44.393Z,1.07
2019-01-29T10:54:12.819Z,1.36
2019-01-29T10:56:41.266Z,1.49
2019-01-29T10:59:10.034Z,1.20
2019-01-29T11:01:38.475Z,1.20
2019-01-29T11:04:07.378Z,0.91
2019-01-29T11:06:36.164Z,0.96
2019-01-29T11:09:08.212Z,1.00
2019-01-29T11:11:35.919Z,1.08
2019-01-29T11:14:04.317Z,0.97
2019-01-29T11:16:32.771Z,1.06
2019-01-29T11:19:03.282Z,1.09
2019-01-29T11:21:31.614Z,1.00
2019-01-29T11:24:00.065Z,0.93
2019-01-29T11:26:28.494Z,0.99
2019-01-29T11:28:57.039Z,1.01
2019-01-29T11:31:25.697Z,1.04
2019-01-29T11:33:54.129Z,1.21
2019-01-29T11:36:22.797Z,1.50
2019-01-29T11:38:51.229Z,1.60
2019-01-29T11:41:19.882Z,1.58
2019-01-29T11:43:48.385Z,1.47
2019-01-29T11:46:16.825Z,1.57
2019-01-29T11:48:45.282Z,1.74
2019-01-29T11:51:13.707Z,1.63
2019-01-29T11:53:42.455Z,1.45
2019-01-29T11:56:11.150Z,1.30
2019-01-29T11:58:39.585Z,1.31
2019-01-29T12:01:13.140Z,1.26
2019-01-29T12:03:41.830Z,1.27
2019-01-29T12:06:10.268Z,1.29
2019-01-29T12:08:38.717Z,1.31
2019-01-29T12:11:07.400Z,1.31
2019-01-29T12:13:35.891Z,1.24
2019-01-29T12:16:04.342Z,1.22
2019-01-29T12:18:32.805Z,1.31
2019-01-29T12:21:01.629Z,1.38
2019-01-29T12:23:30.087Z,1.39
2019-01-29T12:25:58.847Z,1.47
2019-01-29T12:28:27.286Z,1.45
2019-01-29T12:30:56.012Z,1.38
2019-01-29T12:33:24.447Z,1.47
2019-01-29T12:35:54.166Z,1.56
2019-01-29T12:38:23.191Z,1.65
2019-01-29T12:40:51.670Z,1.80
2019-01-29T12:43:20.107Z,1.86
2019-01-29T12:45:48.845Z,1.85
2019-01-29T12:48:17.340Z,1.79
2019-01-29T12:50:51.229Z,1.60
2019-01-29T12:53:22.275Z,1.52
2019-01-29T12:55:50.746Z,1.53
2019-01-29T12:58:19.168Z,1.45
2019-01-29T13:00:53.451Z,1.48
2019-01-29T13:03:21.883Z,1.48
2019-01-29T13:05:50.314Z,1.48
2019-01-29T13:08:21.583Z,1.62
2019-01-29T13:10:50.048Z,1.69
2019-01-29T13:13:18.827Z,1.72
2019-01-29T13:15:47.309Z,1.78
2019-01-29T13:18:15.742Z,1.83
2019-01-29T13:20:44.190Z,1.95
2019-01-29T13:23:12.619Z,1.96
2019-01-29T13:25:41.409Z,1.94
2019-01-29T13:28:09.843Z,1.87
2019-01-29T13:30:38.289Z,1.69
2019-01-29T13:33:09.378Z,1.51
2019-01-29T13:35:37.827Z,1.32
2019-01-29T13:38:06.933Z,1.14
2019-01-29T13:40:36.077Z,1.25
2019-01-29T13:43:05.201Z,1.54
2019-01-29T13:45:33.644Z,1.93
2019-01-29T13:48:02.062Z,1.94
2019-01-29T13:50:33.135Z,1.88
2019-01-29T13:53:02.193Z,2.02
2019-01-29T13:55:30.629Z,2.15
2019-01-29T13:57:59.050Z,2.25
2019-01-29T14:00:29.609Z,2.81
2019-01-29T14:02:58.045Z,4.01
2019-01-29T14:05:26.522Z,4.39
2019-01-29T14:07:54.952Z,4.41
2019-01-29T14:10:23.704Z,3.40
2019-01-29T14:12:52.504Z,2.79
2019-01-29T14:15:38.165Z,2.87
2019-01-29T14:18:08.768Z,2.90
2019-01-29T14:20:37.909Z,2.71
2019-01-29T14:23:07.979Z,2.54
2019-01-29T14:25:36.433Z,2.28
2019-01-29T14:28:04.885Z,2.21
2019-01-29T14:30:33.318Z,2.10
2019-01-29T14:33:01.736Z,1.94
2019-01-29T14:35:30.425Z,1.70
2019-01-29T14:38:46.286Z,1.58
2019-01-29T14:41:15.997Z,1.39
2019-01-29T14:43:50.374Z,1.16
2019-01-29T14:46:19.511Z,1.16
2019-01-29T14:48:47.942Z,1.14
2019-01-29T14:51:16.372Z,1.10
2019-01-29T14:53:44.802Z,1.11
2019-01-29T14:56:13.235Z,1.09
2019-01-29T14:58:42.156Z,1.12
2019-01-29T15:01:10.626Z,1.07
2019-01-29T15:03:39.067Z,1.04
2019-01-29T15:06:07.797Z,1.05
2019-01-29T15:08:36.237Z,1.03
2019-01-29T15:11:04.929Z,1.01
2019-01-29T15:13:33.365Z,1.01
2019-01-29T15:16:09.513Z,1.01
2019-01-29T15:18:41.509Z,1.00
2019-01-29T15:21:09.959Z,0.98
2019-01-29T15:23:38.394Z,0.92
2019-01-29T15:26:06.847Z,0.89
2019-01-29T15:28:35.275Z,0.88
2019-01-29T15:31:03.973Z,0.86
2019-01-29T15:33:32.417Z,0.83
2019-01-29T15:36:00.855Z,0.81
2019-01-29T15:38:29.626Z,0.82
2019-01-29T15:40:58.070Z,0.75
2019-01-29T15:43:26.501Z,0.67
2019-01-29T15:45:54.941Z,0.57
2019-01-29T15:48:24.062Z,0.46
2019-01-29T15:50:52.847Z,0.35
2019-01-29T15:53:21.304Z,0.21
2019-01-29T15:55:50.025Z,0.08
2019-01-29T15:58:18.801Z,0.00
2019-01-29T16:00:47.464Z,-0.09
2019-01-29T16:03:15.909Z,-0.16
2019-01-29T16:05:44.335Z,-0.17
2019-01-29T16:08:12.790Z,-0.20
2019-01-29T16:10:41.916Z,-0.24
2019-01-29T16:13:10.356Z,-0.26
2019-01-29T16:15:39.194Z,-0.26
2019-01-29T16:18:07.634Z,-0.25
2019-01-29T16:20:36.070Z,-0.20
2019-01-29T16:23:06.370Z,-0.19
2019-01-29T16:25:35.012Z,-0.23
2019-01-29T16:28:03.457Z,-0.35
2019-01-29T16:30:31.943Z,-0.38
2019-01-29T16:33:00.392Z,-0.41
2019-01-29T16:35:30.509Z,-0.54
2019-01-29T16:37:58.980Z,-0.62
2019-01-29T16:40:27.813Z,-0.72
2019-01-29T16:42:56.693Z,-0.75
2019-01-29T16:45:27.975Z,-0.81
2019-01-29T16:47:56.510Z,-0.92
2019-01-29T16:50:24.978Z,-0.99
2019-01-29T16:52:53.421Z,-1.07
2019-01-29T16:55:21.892Z,-1.14
2019-01-29T16:57:50.346Z,-1.21
2019-01-29T17:00:29.027Z,-1.22
2019-01-29T17:02:57.535Z,-1.21
2019-01-29T17:05:26.015Z,-1.19
2019-01-29T17:07:54.538Z,-1.18
2019-01-29T17:10:23.077Z,-1.17
2019-01-29T17:12:51.509Z,-1.12
2019-01-29T17:15:22.411Z,-1.04
2019-01-29T17:17:50.868Z,-1.00
2019-01-29T17:20:22.072Z,-0.93
2019-01-29T17:22:50.550Z,-0.89
2019-01-29T17:25:18.983Z,-0.89
2019-01-29T17:27:47.766Z,-0.91
2019-01-29T17:30:30.810Z,-0.99
2019-01-29T17:32:59.264Z,-1.04
2019-01-29T17:35:27.734Z,-1.10
2019-01-29T17:37:56.235Z,-1.02
2019-01-29T17:40:25.015Z,-0.94
2019-01-29T17:42:53.468Z,-0.96
2019-01-29T17:45:25.312Z,-0.95
2019-01-29T17:47:53.837Z,-0.90
2019-01-29T17:50:24.398Z,-0.93
2019-01-29T17:52:53.163Z,-0.85
2019-01-29T17:55:22.442Z,-0.78
2019-01-29T17:57:51.255Z,-0.77
2019-01-29T18:00:23.362Z,-0.70
2019-01-29T18:02:51.071Z,-0.70
2019-01-29T18:05:19.459Z,-0.65
2019-01-29T18:07:48.920Z,-0.62
2019-01-29T18:10:17.379Z,-0.64
2019-01-29T18:12:46.133Z,-0.59
2019-01-29T18:15:17.344Z,-0.54
2019-01-29T18:17:48.189Z,-0.59
2019-01-29T18:20:16.415Z,-0.70
2019-01-29T18:22:44.868Z,-0.84
2019-01-29T18:25:13.560Z,-1.01
2019-01-29T18:27:42.044Z,-1.15
2019-01-29T18:30:13.995Z,-1.27
2019-01-29T18:32:42.428Z,-1.39
2019-01-29T18:35:11.152Z,-1.51
2019-01-29T18:37:39.577Z,-1.56
2019-01-29T18:40:09.684Z,-1.59
2019-01-29T18:42:38.436Z,-1.64
2019-01-29T18:45:07.288Z,-1.65
2019-01-29T18:47:35.744Z,-1.66
2019-01-29T18:50:05.057Z,-1.71
2019-01-29T18:52:33.485Z,-1.74
2019-01-29T18:55:02.376Z,-1.74
2019-01-29T18:57:30.780Z,-1.80
2019-01-29T18:59:59.225Z,-1.86
2019-01-29T19:02:27.921Z,-1.91
2019-01-29T19:04:56.375Z,-1.91
2019-01-29T19:07:24.798Z,-1.87
2019-01-29T19:09:53.263Z,-1.82
2019-01-29T19:12:21.765Z,-1.75
2019-01-29T19:14:50.295Z,-1.78
2019-01-29T19:17:19.016Z,-1.74
2019-01-29T19:19:47.474Z,-1.72
2019-01-29T19:22:16.278Z,-1.66
2019-01-29T19:24:44.799Z,-1.59
2019-01-29T19:27:13.233Z,-1.52
2019-01-29T19:29:41.685Z,-1.56
2019-01-29T19:32:10.532Z,-1.57
2019-01-29T19:34:39.295Z,-1.60
2019-01-29T19:37:07.724Z,-1.66
2019-01-29T19:39:36.464Z,-1.70
2019-01-29T19:42:04.891Z,-1.81
2019-01-29T19:44:33.636Z,-1.91
2019-01-29T19:47:02.091Z,-1.96
2019-01-29T19:49:30.507Z,-2.01
2019-01-29T19:51:59.248Z,-2.00
2019-01-29T19:54:27.675Z,-2.06
2019-01-29T19:56:56.454Z,-2.15
2019-01-29T19:59:24.902Z,-2.22
2019-01-29T20:01:53.338Z,-2.27
2019-01-29T20:04:22.007Z,-2.29
2019-01-29T20:06:50.442Z,-2.25
2019-01-29T20:09:18.862Z,-2.27
2019-01-29T20:11:47.323Z,-2.26
2019-01-29T20:14:15.760Z,-2.24
2019-01-29T20:16:44.221Z,-2.20
2019-01-29T20:19:12.652Z,-2.21
2019-01-29T20:21:41.350Z,-2.15
2019-01-29T20:24:09.783Z,-2.15
2019-01-29T20:26:38.243Z,-2.11
2019-01-29T20:29:06.676Z,-2.14
2019-01-29T20:31:35.122Z,-2.09
2019-01-29T20:34:03.556Z,-2.05
2019-01-29T20:36:32.016Z,-2.06
2019-01-29T20:39:00.465Z,-2.10
2019-01-29T20:41:28.931Z,-2.00
2019-01-29T20:43:57.360Z,-2.02
2019-01-29T20:46:26.351Z,-2.10
2019-01-29T20:48:55.786Z,-2.20
2019-01-29T20:51:24.229Z,-2.26
2019-01-29T20:53:52.943Z,-2.34
2019-01-29T20:56:21.381Z,-2.39
2019-01-29T20:58:52.745Z,-2.41
2019-01-29T21:01:20.390Z,-2.46
2019-01-29T21:03:48.838Z,-2.47
2019-01-29T21:06:17.288Z,-2.52
2019-01-29T21:08:45.732Z,-2.54
2019-01-29T21:11:14.586Z,-2.53
2019-01-29T21:13:43.342Z,-2.56
2019-01-29T21:16:11.796Z,-2.62
2019-01-29T21:18:40.246Z,-2.65
2019-01-29T21:21:08.996Z,-2.72
2019-01-29T21:23:37.455Z,-2.79
2019-01-29T21:26:06.244Z,-2.83
2019-01-29T21:28:34.691Z,-2.73
2019-01-29T21:31:03.437Z,-2.71
2019-01-29T21:33:31.884Z,-2.69
2019-01-29T21:36:00.354Z,-2.73
2019-01-29T21:38:29.230Z,-2.83
2019-01-29T21:40:58.108Z,-2.93
2019-01-29T21:43:27.983Z,-2.97
2019-01-29T21:45:56.549Z,-3.04
2019-01-29T21:48:25.149Z,-3.12
2019-01-29T21:50:53.566Z,-3.19
2019-01-29T21:53:22.413Z,-3.25
2019-01-29T21:55:51.099Z,-3.26
2019-01-29T21:58:19.677Z,-3.27
2019-01-29T22:00:48.150Z,-3.30
2019-01-29T22:03:16.708Z,-3.31
2019-01-29T22:05:45.149Z,-3.36
2019-01-29T22:08:13.606Z,-3.43
2019-01-29T22:10:42.095Z,-3.46
2019-01-29T22:13:12.085Z,-3.51
2019-01-29T22:15:41.303Z,-3.54
2019-01-29T22:18:11.979Z,-3.56
2019-01-29T22:20:40.456Z,-3.57
2019-01-29T22:23:09.214Z,-3.59
2019-01-29T22:25:37.666Z,-3.60
2019-01-29T22:28:08.246Z,-3.64
2019-01-29T22:30:37.652Z,-3.65
2019-01-29T22:33:07.049Z,-3.71
2019-01-29T22:35:35.614Z,-3.74
2019-01-29T22:38:04.038Z,-3.78
2019-01-29T22:40:32.578Z,-3.84
2019-01-29T22:43:01.033Z,-3.87
2019-01-29T22:45:29.506Z,-3.90
2019-01-29T22:47:57.985Z,-3.91
2019-01-29T22:50:29.006Z,-3.89
2019-01-29T22:52:57.566Z,-3.82
2019-01-29T22:55:26.026Z,-3.78
2019-01-29T22:57:54.507Z,-3.81
2019-01-29T23:00:48.790Z,-3.82
2019-01-29T23:03:21.655Z,-3.79
2019-01-29T23:05:55.349Z,-3.77
2019-01-29T23:08:24.348Z,-3.79
2019-01-29T23:10:52.811Z,-3.81
2019-01-29T23:13:21.257Z,-3.85
2019-01-29T23:15:50.097Z,-3.86
2019-01-29T23:18:18.558Z,-3.88
2019-01-29T23:20:46.971Z,-3.89
2019-01-29T23:23:15.761Z,-3.87
2019-01-29T23:25:44.216Z,-3.91
2019-01-29T23:28:13.937Z,-3.95
2019-01-29T23:30:42.382Z,-4.00
2019-01-29T23:33:10.819Z,-4.06
2019-01-29T23:35:41.955Z,-4.13
2019-01-29T23:38:10.411Z,-4.18
2019-01-29T23:40:39.075Z,-4.21
2019-01-29T23:43:07.529Z,-4.26
2019-01-29T23:45:35.977Z,-4.24
2019-01-29T23:48:04.420Z,-4.20
2019-01-29T23:50:32.895Z,-4.21
2019-01-29T23:53:01.727Z,-4.21
2019-01-29T23:55:30.157Z,-4.17
2019-01-29T23:57:58.883Z,-4.22
